Time;durP1;ratioP1;P1;durP2;ratioP2;P2;SDS_P1;SDS_P2;PMS_P1;PMS_P2;Temp;Humidity;BMP_temperature;BMP_pressure;BME280_temperature;BME280_humidity;BME280_pressure;Samples;Min_cycle;Max_cycle;Signal;HPM_P1;HPM_P2
2022/09/22 00:00:38;;;;;;;;;;;24.20;48.10;;;;;;1572335;74;763;-55
2022/09/22 00:02:40;;;;;;;;;;;24.20;48.00;;;;;;1573611;74;673;-58
2022/09/22 00:04:42;;;;;;;;;;;24.10;48.10;;;;;;1573681;74;1120;-59
2022/09/22 00:06:50;;;;;;;;;;;24.20;48.10;;;;;;1572888;74;1974;-58
2022/09/22 00:08:59;;;;;;;;;;;24.20;48.10;;;;;;1573882;74;1056;-59
2022/09/22 00:11:01;;;;;;;;;;;24.20;48.10;;;;;;1572045;74;1611;-58
2022/09/22 00:13:03;;;;;;;;;;;24.20;48.10;;;;;;1569695;74;1735;-57
2022/09/22 00:15:05;;;;;;;;;;;24.20;48.10;;;;;;1572178;74;1148;-59
2022/09/22 00:17:07;;;;;;;;;;;24.30;48.20;;;;;;1572308;74;680;-58
2022/09/22 00:19:10;;;;;;;;;;;24.20;48.00;;;;;;1572402;74;674;-57
2022/09/22 00:21:13;;;;;;;;;;;24.20;48.10;;;;;;1573225;74;764;-59
2022/09/22 00:23:15;;;;;;;;;;;24.20;48.20;;;;;;1572725;74;746;-59
2022/09/22 00:25:17;;;;;;;;;;;24.20;48.20;;;;;;1573518;74;1088;-56
2022/09/22 00:27:19;;;;;;;;;;;24.20;48.10;;;;;;1572815;74;1939;-57
2022/09/22 00:29:22;;;;;;;;;;;24.10;48.10;;;;;;1579458;74;969;-60
2022/09/22 00:31:24;;;;;;;;;;;24.20;48.10;;;;;;1572361;74;756;-58
2022/09/22 00:33:26;;;;;;;;;;;24.10;48.20;;;;;;1571688;74;866;-59
2022/09/22 00:35:28;;;;;;;;;;;24.20;48.20;;;;;;1576049;74;1160;-59
2022/09/22 00:37:30;;;;;;;;;;;24.20;48.20;;;;;;1570543;74;743;-59
2022/09/22 00:39:32;;;;;;;;;;;24.10;48.30;;;;;;1571544;74;736;-58
2022/09/22 00:41:36;;;;;;;;;;;24.10;48.30;;;;;;1566791;74;1585;-56
2022/09/22 00:43:38;;;;;;;;;;;24.10;48.30;;;;;;1569503;74;666;-56
2022/09/22 00:45:39;;;;;;;;;;;24.10;48.40;;;;;;1574755;74;1140;-56
2022/09/22 00:47:42;;;;;;;;;;;24.00;48.20;;;;;;1570092;74;1948;-58
2022/09/22 00:49:55;;;;;;;;;;;24.10;48.40;;;;;;1574701;74;668;-58
2022/09/22 00:51:57;;;;;;;;;;;24.00;48.20;;;;;;1567701;74;735;-56
2022/09/22 00:53:59;;;;;;;;;;;24.10;48.40;;;;;;1570821;74;1184;-59
2022/09/22 00:56:02;;;;;;;;;;;24.10;48.40;;;;;;1570889;74;1548;-56
2022/09/22 00:58:06;;;;;;;;;;;24.00;48.30;;;;;;1570425;74;736;-58
2022/09/22 01:00:08;;;;;;;;;;;24.00;48.30;;;;;;1575213;74;761;-58
2022/09/22 01:02:10;;;;;;;;;;;24.00;48.30;;;;;;1575247;74;695;-59
2022/09/22 01:04:13;;;;;;;;;;;24.00;48.40;;;;;;1571982;74;1152;-55
2022/09/22 01:06:16;;;;;;;;;;;24.00;48.30;;;;;;1571917;74;728;-59
2022/09/22 01:08:18;;;;;;;;;;;24.00;48.30;;;;;;1569695;74;1905;-59
2022/09/22 01:10:21;;;;;;;;;;;24.00;48.30;;;;;;1570723;74;1579;-58
2022/09/22 01:12:23;;;;;;;;;;;24.00;48.30;;;;;;1572052;74;763;-59
2022/09/22 01:14:27;;;;;;;;;;;24.00;48.40;;;;;;1570624;74;1167;-59
2022/09/22 01:16:30;;;;;;;;;;;24.00;48.30;;;;;;1574365;74;1928;-59
2022/09/22 01:18:34;;;;;;;;;;;24.00;48.30;;;;;;1572202;74;738;-55
2022/09/22 01:20:37;;;;;;;;;;;24.00;48.30;;;;;;1572638;74;2213;-56
2022/09/22 01:22:59;;;;;;;;;;;24.10;48.40;;;;;;1556343;74;1707;-59
2022/09/22 01:25:20;;;;;;;;;;;24.10;48.40;;;;;;1574854;74;1116;-58
2022/09/22 01:27:32;;;;;;;;;;;24.10;48.40;;;;;;1573955;74;1955;-59
2022/09/22 01:29:45;;;;;;;;;;;24.00;48.20;;;;;;1571182;74;1129;-58
2022/09/22 01:32:03;;;;;;;;;;;24.00;48.30;;;;;;1574630;74;805;-58
2022/09/22 01:34:10;;;;;;;;;;;24.00;48.40;;;;;;1573876;74;1152;-58
2022/09/22 01:36:17;;;;;;;;;;;24.00;48.40;;;;;;1569506;74;1808;-59
2022/09/22 01:38:29;;;;;;;;;;;24.00;48.40;;;;;;1566872;74;1575;-59
2022/09/22 01:40:31;;;;;;;;;;;24.00;48.40;;;;;;1574620;74;1483;-58
2022/09/22 01:42:35;;;;;;;;;;;24.00;48.20;;;;;;1579397;74;906;-58
2022/09/22 01:44:51;;;;;;;;;;;24.10;48.30;;;;;;1571852;74;1105;-59
2022/09/22 01:46:57;;;;;;;;;;;24.20;48.20;;;;;;1564112;74;682;-58
2022/09/22 01:48:59;;;;;;;;;;;24.20;48.20;;;;;;1570958;74;1920;-59
2022/09/22 01:51:15;;;;;;;;;;;24.20;48.20;;;;;;1570341;74;1547;-59
2022/09/22 01:53:17;;;;;;;;;;;24.20;48.20;;;;;;1570239;74;1871;-58
2022/09/22 01:55:21;;;;;;;;;;;24.20;48.10;;;;;;1566020;74;1186;-59
2022/09/22 01:57:24;;;;;;;;;;;24.20;48.10;;;;;;1578832;74;623;-59
2022/09/22 01:59:27;;;;;;;;;;;24.20;48.10;;;;;;1579379;74;1837;-58
2022/09/22 02:01:31;;;;;;;;;;;24.30;48.10;;;;;;1572408;74;697;-59
2022/09/22 02:03:40;;;;;;;;;;;24.30;48.10;;;;;;1572620;74;802;-59
2022/09/22 02:05:44;;;;;;;;;;;24.20;47.80;;;;;;1566502;74;1780;-58
2022/09/22 02:07:47;;;;;;;;;;;24.30;48.00;;;;;;1568696;74;1939;-59
2022/09/22 02:09:49;;;;;;;;;;;24.20;48.00;;;;;;1570175;74;686;-57
2022/09/22 02:11:51;;;;;;;;;;;24.20;47.90;;;;;;1572942;74;692;-58
2022/09/22 02:13:53;;;;;;;;;;;24.20;47.80;;;;;;1571961;74;1145;-59
2022/09/22 02:16:01;;;;;;;;;;;24.30;48.00;;;;;;1571121;74;693;-59
2022/09/22 02:18:05;;;;;;;;;;;24.30;47.90;;;;;;1572709;74;721;-59
2022/09/22 02:20:07;;;;;;;;;;;24.20;47.80;;;;;;1573434;74;1530;-59
2022/09/22 02:22:09;;;;;;;;;;;24.20;47.90;;;;;;1577212;74;803;-58
2022/09/22 02:24:30;;;;;;;;;;;24.30;48.00;;;;;;1578431;74;1144;-58
2022/09/22 02:26:33;;;;;;;;;;;24.20;47.90;;;;;;1575725;74;702;-58
2022/09/22 02:28:37;;;;;;;;;;;24.20;47.90;;;;;;1574278;74;1958;-59
2022/09/22 02:30:40;;;;;;;;;;;24.20;47.90;;;;;;1572604;74;722;-58
2022/09/22 02:32:43;;;;;;;;;;;24.30;48.00;;;;;;1567218;74;785;-58
2022/09/22 02:34:44;;;;;;;;;;;24.30;47.90;;;;;;1572823;74;1639;-56
2022/09/22 02:36:48;;;;;;;;;;;24.40;47.80;;;;;;1568326;74;591;-59
2022/09/22 02:38:54;;;;;;;;;;;24.40;47.80;;;;;;1572432;74;1618;-59
2022/09/22 02:41:09;;;;;;;;;;;24.30;47.80;;;;;;1560213;74;1726;-56
2022/09/22 02:43:15;;;;;;;;;;;24.40;47.80;;;;;;1580319;74;919;-56
2022/09/22 02:45:18;;;;;;;;;;;24.40;47.70;;;;;;1571733;74;1157;-58
2022/09/22 02:47:26;;;;;;;;;;;24.30;47.70;;;;;;1572555;74;1525;-59
2022/09/22 02:49:27;;;;;;;;;;;24.40;47.80;;;;;;1573438;74;1909;-59
2022/09/22 02:51:29;;;;;;;;;;;24.30;47.70;;;;;;1571359;74;720;-57
2022/09/22 02:53:32;;;;;;;;;;;24.40;47.70;;;;;;1572157;74;693;-57
2022/09/22 02:55:34;;;;;;;;;;;24.30;47.70;;;;;;1571842;74;1135;-59
2022/09/22 02:57:36;;;;;;;;;;;24.30;47.80;;;;;;1536170;76;843;-55
2022/09/22 02:59:38;;;;;;;;;;;24.30;48.00;;;;;;1547123;75;727;-57
2022/09/22 03:01:40;;;;;;;;;;;24.40;48.00;;;;;;1537811;75;1506;-56
2022/09/22 03:03:42;;;;;;;;;;;24.50;47.90;;;;;;1543702;75;682;-57
2022/09/22 03:05:44;;;;;;;;;;;24.40;47.70;;;;;;1544290;76;1126;-58
2022/09/22 03:07:46;;;;;;;;;;;24.50;47.80;;;;;;1542567;76;1947;-59
2022/09/22 03:09:48;;;;;;;;;;;24.30;47.90;;;;;;1543971;75;714;-59
2022/09/22 03:11:50;;;;;;;;;;;24.30;48.10;;;;;;1514420;77;733;-59
2022/09/22 03:13:52;;;;;;;;;;;24.30;48.20;;;;;;1517042;76;1153;-58
2022/09/22 03:15:54;;;;;;;;;;;24.40;48.10;;;;;;1517630;77;1585;-58
2022/09/22 03:17:56;;;;;;;;;;;24.40;48.10;;;;;;1541148;75;783;-57
2022/09/22 03:19:58;;;;;;;;;;;24.30;47.90;;;;;;1542262;75;699;-59
2022/09/22 03:21:59;;;;;;;;;;;24.40;47.80;;;;;;1540359;75;706;-58
2022/09/22 03:24:02;;;;;;;;;;;24.40;47.70;;;;;;1543345;75;1122;-59
2022/09/22 03:26:03;;;;;;;;;;;24.50;47.60;;;;;;1540224;75;687;-57
2022/09/22 03:28:05;;;;;;;;;;;24.50;47.60;;;;;;1524855;77;1959;-59
2022/09/22 03:30:08;;;;;;;;;;;24.50;47.50;;;;;;1516001;76;1570;-59
2022/09/22 03:32:10;;;;;;;;;;;24.50;47.50;;;;;;1515164;77;735;-58
2022/09/22 03:34:11;;;;;;;;;;;24.50;47.50;;;;;;1545502;75;1115;-58
2022/09/22 03:36:13;;;;;;;;;;;24.50;47.40;;;;;;1545525;75;745;-57
2022/09/22 03:38:15;;;;;;;;;;;24.50;47.40;;;;;;1547431;75;769;-59
2022/09/22 03:40:17;;;;;;;;;;;24.50;47.30;;;;;;1544337;75;762;-58
2022/09/22 03:42:19;;;;;;;;;;;24.50;47.30;;;;;;1538379;75;770;-58
2022/09/22 03:44:21;;;;;;;;;;;24.50;47.30;;;;;;1547804;75;1514;-58
2022/09/22 03:46:23;;;;;;;;;;;24.50;47.30;;;;;;1521442;76;798;-59
2022/09/22 03:48:25;;;;;;;;;;;24.40;47.20;;;;;;1518887;76;1925;-59
2022/09/22 03:50:27;;;;;;;;;;;24.50;47.30;;;;;;1519286;76;756;-57
2022/09/22 03:52:30;;;;;;;;;;;24.40;47.30;;;;;;1523112;77;729;-57
2022/09/22 03:54:32;;;;;;;;;;;24.40;47.30;;;;;;1516052;76;1175;-59
2022/09/22 03:56:33;;;;;;;;;;;24.40;47.30;;;;;;1520837;77;759;-59
2022/09/22 03:58:36;;;;;;;;;;;24.50;47.40;;;;;;1518439;76;1520;-58
2022/09/22 04:00:38;;;;;;;;;;;24.40;47.30;;;;;;1517509;77;794;-58
2022/09/22 04:02:40;;;;;;;;;;;24.40;47.20;;;;;;1512515;77;771;-57
2022/09/22 04:04:42;;;;;;;;;;;24.40;47.30;;;;;;1542462;75;1148;-59
2022/09/22 04:06:43;;;;;;;;;;;24.40;47.30;;;;;;1543967;75;719;-59
2022/09/22 04:08:45;;;;;;;;;;;24.40;47.30;;;;;;1539030;75;1932;-58
2022/09/22 04:10:47;;;;;;;;;;;24.30;47.30;;;;;;1543568;75;698;-57
2022/09/22 04:12:49;;;;;;;;;;;24.40;47.30;;;;;;1511249;77;1667;-57
2022/09/22 04:14:51;;;;;;;;;;;24.40;47.30;;;;;;1513658;77;1120;-59
2022/09/22 04:16:53;;;;;;;;;;;24.40;47.20;;;;;;1546263;75;719;-59
2022/09/22 04:18:55;;;;;;;;;;;24.40;47.10;;;;;;1516901;77;712;-59
2022/09/22 04:21:00;;;;;;;;;;;24.40;47.20;;;;;;1515748;77;699;-57
2022/09/22 04:23:01;;;;;;;;;;;24.40;47.20;;;;;;1542736;75;818;-59
2022/09/22 04:25:04;;;;;;;;;;;24.40;47.20;;;;;;1520464;76;1143;-58
2022/09/22 04:27:06;;;;;;;;;;;24.40;47.30;;;;;;1543670;75;1545;-60
2022/09/22 04:29:08;;;;;;;;;;;24.40;47.30;;;;;;1541782;75;1939;-59
2022/09/22 04:31:09;;;;;;;;;;;24.50;47.30;;;;;;1543873;75;759;-59
2022/09/22 04:33:11;;;;;;;;;;;24.40;47.30;;;;;;1544098;75;758;-58
2022/09/22 04:35:13;;;;;;;;;;;24.40;47.30;;;;;;1544024;75;1231;-59
2022/09/22 04:37:15;;;;;;;;;;;24.40;47.30;;;;;;1540150;75;723;-56
2022/09/22 04:39:17;;;;;;;;;;;24.40;47.30;;;;;;1545652;75;840;-56
2022/09/22 04:41:19;;;;;;;;;;;24.40;47.30;;;;;;1516496;77;1580;-57
2022/09/22 04:43:21;;;;;;;;;;;24.40;47.50;;;;;;1543755;76;683;-59
2022/09/22 04:45:23;;;;;;;;;;;24.40;47.50;;;;;;1509791;77;1144;-59
2022/09/22 04:47:25;;;;;;;;;;;24.40;47.60;;;;;;1547831;75;716;-57
2022/09/22 04:49:27;;;;;;;;;;;24.40;47.50;;;;;;1549419;75;1972;-57
2022/09/22 04:51:29;;;;;;;;;;;24.50;47.50;;;;;;1544858;76;790;-60
2022/09/22 04:53:31;;;;;;;;;;;24.40;47.40;;;;;;1533640;75;582;-57
2022/09/22 04:55:32;;;;;;;;;;;24.50;47.40;;;;;;1541120;75;1524;-56
2022/09/22 04:57:34;;;;;;;;;;;24.50;47.40;;;;;;1535348;75;690;-59
2022/09/22 04:59:36;;;;;;;;;;;24.50;47.40;;;;;;1516666;76;681;-59
2022/09/22 05:01:38;;;;;;;;;;;24.50;47.30;;;;;;1552513;75;726;-59
2022/09/22 05:03:40;;;;;;;;;;;24.50;47.40;;;;;;1546984;75;926;-59
2022/09/22 05:05:42;;;;;;;;;;;24.40;47.30;;;;;;1533549;76;1131;-59
2022/09/22 05:07:45;;;;;;;;;;;24.40;47.30;;;;;;1543777;75;645;-58
2022/09/22 05:09:47;;;;;;;;;;;24.40;47.40;;;;;;1545185;75;1924;-58
2022/09/22 05:11:49;;;;;;;;;;;24.30;47.50;;;;;;1546008;75;626;-56
2022/09/22 05:13:51;;;;;;;;;;;24.40;47.40;;;;;;1556316;75;1140;-59
2022/09/22 05:15:53;;;;;;;;;;;24.40;47.50;;;;;;1563406;75;758;-59
2022/09/22 05:17:55;;;;;;;;;;;24.30;47.50;;;;;;1556039;75;706;-58
2022/09/22 05:19:56;;;;;;;;;;;24.30;47.50;;;;;;1544746;75;679;-56
2022/09/22 05:21:59;;;;;;;;;;;24.30;47.60;;;;;;1547610;75;1537;-55
2022/09/22 05:24:01;;;;;;;;;;;24.30;47.40;;;;;;1551236;75;1200;-57
2022/09/22 05:26:02;;;;;;;;;;;24.30;47.50;;;;;;1550911;75;769;-59
2022/09/22 05:28:04;;;;;;;;;;;24.30;47.40;;;;;;1531570;77;675;-57
2022/09/22 05:30:07;;;;;;;;;;;24.30;47.30;;;;;;1542799;76;1931;-60
2022/09/22 05:32:08;;;;;;;;;;;24.30;47.50;;;;;;1584401;72;3107;-61
2022/09/22 05:34:10;;;;;;;;;;;24.30;47.20;;;;;;1590259;73;1153;-60
2022/09/22 05:36:12;;;;;;;;;;;24.20;47.40;;;;;;1590321;74;1507;-60
2022/09/22 05:38:14;;;;;;;;;;;24.40;47.40;;;;;;1587770;74;767;-59
2022/09/22 05:40:16;;;;;;;;;;;24.30;47.30;;;;;;1588013;74;751;-60
2022/09/22 05:42:19;;;;;;;;;;;24.30;47.30;;;;;;1587169;74;668;-60
2022/09/22 05:44:20;;;;;;;;;;;24.40;47.20;;;;;;1580701;74;1167;-60
2022/09/22 05:46:22;;;;;;;;;;;24.30;47.20;;;;;;1583784;74;713;-60
2022/09/22 05:48:24;;;;;;;;;;;24.20;47.30;;;;;;1584725;74;664;-60
2022/09/22 05:50:26;;;;;;;;;;;24.30;47.20;;;;;;1584655;74;1941;-59
2022/09/22 05:52:28;;;;;;;;;;;24.30;47.10;;;;;;1589226;74;735;-60
2022/09/22 05:54:30;;;;;;;;;;;24.30;47.10;;;;;;1576209;74;1282;-59
2022/09/22 05:56:32;;;;;;;;;;;24.30;46.90;;;;;;1582103;74;691;-59
2022/09/22 05:58:34;;;;;;;;;;;24.40;46.70;;;;;;1587103;74;676;-60
2022/09/22 06:00:36;;;;;;;;;;;24.30;46.50;;;;;;1582460;74;685;-60
2022/09/22 06:02:38;;;;;;;;;;;24.20;46.50;;;;;;1584600;74;659;-57
2022/09/22 06:04:39;;;;;;;;;;;24.20;46.50;;;;;;1581923;74;1366;-59
2022/09/22 06:06:41;;;;;;;;;;;24.20;46.60;;;;;;1588292;74;714;-60
2022/09/22 06:08:43;;;;;;;;;;;24.00;46.70;;;;;;1579170;74;700;-59
2022/09/22 06:10:47;;;;;;;;;;;24.00;46.80;;;;;;1583200;74;1961;-60
2022/09/22 06:12:49;;;;;;;;;;;23.90;46.90;;;;;;1583383;74;1498;-58
2022/09/22 06:14:50;;;;;;;;;;;23.90;47.00;;;;;;1558931;74;1142;-58
2022/09/22 06:16:53;;;;;;;;;;;23.90;47.00;;;;;;1560680;74;788;-59
2022/09/22 06:18:55;;;;;;;;;;;23.90;47.10;;;;;;1554662;74;1538;-58
2022/09/22 06:20:58;;;;;;;;;;;23.90;47.20;;;;;;1579409;74;733;-59
2022/09/22 06:23:00;;;;;;;;;;;23.90;47.30;;;;;;1568024;74;774;-60
2022/09/22 06:25:02;;;;;;;;;;;23.80;47.20;;;;;;1577281;74;1144;-60
2022/09/22 06:27:04;;;;;;;;;;;23.80;47.30;;;;;;1563566;74;693;-58
2022/09/22 06:29:07;;;;;;;;;;;23.80;47.30;;;;;;1587376;74;1923;-58
2022/09/22 06:31:09;;;;;;;;;;;23.80;47.30;;;;;;1574966;74;773;-59
2022/09/22 06:33:10;;;;;;;;;;;23.90;47.50;;;;;;1578936;74;1694;-59
2022/09/22 06:35:12;;;;;;;;;;;23.80;47.40;;;;;;1557560;74;1108;-57
2022/09/22 06:37:14;;;;;;;;;;;23.80;47.40;;;;;;1584226;74;733;-59
2022/09/22 06:39:16;;;;;;;;;;;23.80;47.40;;;;;;1585567;74;748;-58
2022/09/22 06:41:18;;;;;;;;;;;23.80;47.40;;;;;;1580137;74;666;-59
2022/09/22 06:43:24;;;;;;;;;;;23.80;47.40;;;;;;1591019;74;710;-60
2022/09/22 06:45:26;;;;;;;;;;;23.80;47.40;;;;;;1585419;74;1154;-59
2022/09/22 06:47:28;;;;;;;;;;;23.80;47.40;;;;;;1569289;74;1321;-59
2022/09/22 06:49:30;;;;;;;;;;;23.70;47.50;;;;;;1568662;74;1908;-60
2022/09/22 06:51:33;;;;;;;;;;;23.70;47.60;;;;;;1568719;74;634;-59
2022/09/22 06:53:34;;;;;;;;;;;23.70;47.60;;;;;;1583454;74;575;-60
2022/09/22 06:55:37;;;;;;;;;;;23.80;47.60;;;;;;1572112;74;1129;-58
2022/09/22 06:57:38;;;;;;;;;;;23.80;47.60;;;;;;1582832;74;642;-58
2022/09/22 06:59:40;;;;;;;;;;;23.70;47.60;;;;;;1565900;74;696;-59
2022/09/22 07:01:43;;;;;;;;;;;23.80;47.60;;;;;;1575947;74;1564;-58
2022/09/22 07:03:45;;;;;;;;;;;23.70;47.60;;;;;;1581923;74;705;-58
2022/09/22 07:05:53;;;;;;;;;;;23.70;47.60;;;;;;1565445;74;1113;-58
2022/09/22 07:07:55;;;;;;;;;;;23.70;47.60;;;;;;1589883;74;659;-57
2022/09/22 07:09:57;;;;;;;;;;;23.70;47.60;;;;;;1566212;74;1922;-58
2022/09/22 07:11:59;;;;;;;;;;;23.60;47.50;;;;;;1586050;73;629;-59
2022/09/22 07:14:02;;;;;;;;;;;23.70;47.70;;;;;;1565168;74;1141;-58
2022/09/22 07:16:08;;;;;;;;;;;23.70;47.60;;;;;;1586646;74;1587;-60
2022/09/22 07:18:10;;;;;;;;;;;23.70;47.60;;;;;;1571560;74;795;-60
2022/09/22 07:20:12;;;;;;;;;;;23.70;47.60;;;;;;1580983;74;682;-59
2022/09/22 07:22:14;;;;;;;;;;;23.70;47.50;;;;;;1576921;73;724;-60
2022/09/22 07:24:16;;;;;;;;;;;23.70;47.60;;;;;;1553203;76;1122;-60
2022/09/22 07:26:20;;;;;;;;;;;23.80;47.50;;;;;;1568668;74;724;-59
2022/09/22 07:28:24;;;;;;;;;;;23.90;47.30;;;;;;1586329;74;730;-59
2022/09/22 07:30:27;;;;;;;;;;;23.90;47.10;;;;;;1553375;74;1922;-60
2022/09/22 07:32:31;;;;;;;;;;;23.90;47.00;;;;;;1563073;74;791;-59
2022/09/22 07:34:33;;;;;;;;;;;23.90;46.80;;;;;;1563467;74;1155;-60
2022/09/22 07:36:36;;;;;;;;;;;23.90;47.00;;;;;;1559575;74;699;-59
2022/09/22 07:38:38;;;;;;;;;;;23.80;46.90;;;;;;1567896;74;673;-58
2022/09/22 07:40:39;;;;;;;;;;;24.00;47.00;;;;;;1568094;74;675;-60
2022/09/22 07:42:41;;;;;;;;;;;23.90;46.90;;;;;;1583104;74;1525;-60
2022/09/22 07:47:03;;;;;;;;;;;23.80;46.90;;;;;;1589109;74;1642;-59
2022/09/22 07:49:06;;;;;;;;;;;23.90;47.10;;;;;;1571114;74;763;-61
2022/09/22 07:51:09;;;;;;;;;;;23.90;47.10;;;;;;1573932;74;1904;-60
2022/09/22 07:53:11;;;;;;;;;;;23.90;47.10;;;;;;1581988;74;2095;-60
2022/09/22 07:55:13;;;;;;;;;;;23.90;47.00;;;;;;1579543;74;1109;-60
2022/09/22 07:57:15;;;;;;;;;;;23.90;46.80;;;;;;1583308;74;1566;-61
2022/09/22 07:59:17;;;;;;;;;;;23.90;46.70;;;;;;1582096;74;730;-60
2022/09/22 08:01:20;;;;;;;;;;;23.80;46.80;;;;;;1587562;74;724;-60
2022/09/22 08:03:22;;;;;;;;;;;23.80;46.70;;;;;;1590785;74;744;-60
2022/09/22 08:05:24;;;;;;;;;;;23.80;47.10;;;;;;1592451;74;1199;-60
2022/09/22 08:07:30;;;;;;;;;;;23.80;46.90;;;;;;1587037;74;786;-60
2022/09/22 08:09:30;;;;;;;;;;;23.70;46.80;;;;;;1591558;74;1646;-60
2022/09/22 08:11:32;;;;;;;;;;;23.70;47.00;;;;;;1555003;75;1946;-61
2022/09/22 08:13:35;;;;;;;;;;;23.70;47.30;;;;;;1613442;72;689;-60
2022/09/22 08:15:39;;;;;;;;;;;23.80;47.30;;;;;;1617385;72;1118;-60
2022/09/22 08:17:42;;;;;;;;;;;23.80;47.50;;;;;;1621397;72;673;-60
2022/09/22 08:19:44;;;;;;;;;;;23.90;49.30;;;;;;1618003;72;686;-61
2022/09/22 08:21:46;;;;;;;;;;;23.90;48.50;;;;;;1609372;72;664;-60
2022/09/22 08:23:53;;;;;;;;;;;24.00;49.10;;;;;;1612387;72;666;-60
2022/09/22 08:25:52;;;;;;;;;;;23.90;49.20;;;;;;1608005;72;1552;-60
2022/09/22 08:27:54;;;;;;;;;;;24.00;49.30;;;;;;1603020;72;858;-61
2022/09/22 08:29:56;;;;;;;;;;;24.00;49.40;;;;;;1610306;72;1933;-60
2022/09/22 08:31:57;;;;;;;;;;;24.00;49.50;;;;;;1611501;72;682;-60
2022/09/22 08:33:59;;;;;;;;;;;23.90;49.60;;;;;;1612304;72;1161;-61
2022/09/22 08:36:02;;;;;;;;;;;24.00;49.70;;;;;;1610995;72;742;-60
2022/09/22 08:38:04;;;;;;;;;;;23.90;49.60;;;;;;1606013;72;894;-60
2022/09/22 08:40:06;;;;;;;;;;;24.00;49.60;;;;;;1609855;72;1540;-61
2022/09/22 08:42:21;;;;;;;;;;;24.00;49.50;;;;;;1617439;72;701;-61
2022/09/22 08:44:24;;;;;;;;;;;24.00;49.40;;;;;;1604367;72;1146;-61
2022/09/22 08:46:30;;;;;;;;;;;24.00;49.40;;;;;;1611545;72;727;-60
2022/09/22 08:53:13;;;;;;;;;;;24.10;49.70;;;;;;1596497;73;1586;-60
2022/09/22 08:55:22;;;;;;;;;;;24.20;49.50;;;;;;1615476;72;1144;-60
2022/09/22 08:57:28;;;;;;;;;;;24.20;49.40;;;;;;1614970;72;766;-60
2022/09/22 08:59:32;;;;;;;;;;;24.20;49.30;;;;;;1604650;72;1523;-59
2022/09/22 09:01:52;;;;;;;;;;;24.20;49.20;;;;;;1622472;73;643;-59
2022/09/22 09:04:10;;;;;;;;;;;24.20;49.20;;;;;;1620329;71;1175;-59
2022/09/22 09:06:13;;;;;;;;;;;24.20;49.00;;;;;;1617064;71;784;-60
2022/09/22 09:08:33;;;;;;;;;;;24.30;49.10;;;;;;1620706;71;1543;-59
2022/09/22 09:10:54;;;;;;;;;;;24.30;49.10;;;;;;1621601;71;1932;-59
2022/09/22 09:13:03;;;;;;;;;;;24.30;49.00;;;;;;1615953;71;726;-60
2022/09/22 09:15:10;;;;;;;;;;;24.30;48.90;;;;;;1628136;71;1121;-59
2022/09/22 09:17:16;;;;;;;;;;;24.40;48.80;;;;;;1627768;71;710;-59
2022/09/22 09:19:19;;;;;;;;;;;24.40;48.70;;;;;;1622958;71;1791;-60
2022/09/22 09:21:21;;;;;;;;;;;24.40;48.50;;;;;;1620101;71;1514;-61
2022/09/22 09:23:30;;;;;;;;;;;24.40;48.40;;;;;;1614817;71;731;-63
2022/09/22 09:25:33;;;;;;;;;;;24.40;48.40;;;;;;1614432;71;1631;-60
2022/09/22 09:27:37;;;;;;;;;;;24.40;48.30;;;;;;1615754;71;754;-59
2022/09/22 09:29:40;;;;;;;;;;;24.40;48.20;;;;;;1617353;71;678;-60
2022/09/22 09:31:48;;;;;;;;;;;24.40;48.30;;;;;;1623554;71;1915;-60
2022/09/22 09:33:55;;;;;;;;;;;24.40;48.20;;;;;;1624323;73;798;-59
2022/09/22 09:35:57;;;;;;;;;;;24.40;48.10;;;;;;1623651;71;1356;-60
2022/09/22 09:38:00;;;;;;;;;;;24.40;48.10;;;;;;1616196;71;711;-60
2022/09/22 09:40:02;;;;;;;;;;;24.50;48.10;;;;;;1629455;71;1146;-60
2022/09/22 09:42:18;;;;;;;;;;;24.40;47.90;;;;;;1613889;71;767;-59
2022/09/22 09:44:22;;;;;;;;;;;24.40;48.00;;;;;;1572030;73;1163;-60
2022/09/22 09:46:41;;;;;;;;;;;24.50;48.10;;;;;;1625446;71;1986;-59
2022/09/22 09:49:01;;;;;;;;;;;24.50;48.00;;;;;;1621121;73;674;-59
2022/09/22 09:51:04;;;;;;;;;;;24.40;47.80;;;;;;1616169;71;1925;-59
2022/09/22 09:53:07;;;;;;;;;;;24.40;47.80;;;;;;1625328;71;728;-59
2022/09/22 09:55:25;;;;;;;;;;;24.50;47.80;;;;;;1623709;71;1834;-59
2022/09/22 09:57:28;;;;;;;;;;;24.60;47.80;;;;;;1616014;71;750;-60
2022/09/22 10:01:50;;;;;;;;;;;24.50;47.60;;;;;;1624135;71;795;-58
2022/09/22 10:03:53;;;;;;;;;;;24.60;47.60;;;;;;1618703;71;1342;-58
2022/09/22 10:05:59;;;;;;;;;;;24.50;47.60;;;;;;1613373;71;741;-61
2022/09/22 10:08:26;;;;;;;;;;;24.60;47.50;;;;;;1609955;71;917;-59
2022/09/22 10:10:34;;;;;;;;;;;24.60;47.40;;;;;;1622314;71;1932;-59
2022/09/22 10:12:36;;;;;;;;;;;24.50;47.40;;;;;;1623730;71;715;-59
2022/09/22 10:14:38;;;;;;;;;;;24.50;47.40;;;;;;1624535;71;1137;-60
2022/09/22 10:16:40;;;;;;;;;;;24.70;47.50;;;;;;1624037;71;691;-60
2022/09/22 10:18:42;;;;;;;;;;;24.50;47.30;;;;;;1594958;74;1578;-60
2022/09/22 10:20:44;;;;;;;;;;;24.60;47.30;;;;;;1615304;71;644;-58
2022/09/22 10:22:45;;;;;;;;;;;24.60;47.30;;;;;;1622700;71;679;-58
2022/09/22 10:25:00;;;;;;;;;;;24.60;47.30;;;;;;1622974;71;1099;-59
2022/09/22 10:27:02;;;;;;;;;;;24.60;47.20;;;;;;1628127;71;866;-58
2022/09/22 10:29:17;;;;;;;;;;;24.60;47.20;;;;;;1618830;71;766;-60
2022/09/22 10:31:20;;;;;;;;;;;24.60;47.20;;;;;;1618454;71;1923;-62
2022/09/22 10:33:22;;;;;;;;;;;24.60;47.20;;;;;;1607634;71;682;-60
2022/09/22 10:35:25;;;;;;;;;;;24.60;47.20;;;;;;1625675;71;1162;-59
2022/09/22 10:37:27;;;;;;;;;;;24.50;47.30;;;;;;1609870;71;713;-60
2022/09/22 10:39:48;;;;;;;;;;;24.50;47.40;;;;;;1618163;71;723;-58
2022/09/22 10:41:50;;;;;;;;;;;24.50;47.60;;;;;;1611450;71;693;-61
2022/09/22 10:43:58;;;;;;;;;;;24.40;47.60;;;;;;1620610;71;1295;-59
2022/09/22 10:46:02;;;;;;;;;;;24.40;47.70;;;;;;1589205;73;1468;-61
2022/09/22 10:48:18;;;;;;;;;;;24.40;47.70;;;;;;1627026;71;1487;-59
2022/09/22 10:50:38;;;;;;;;;;;24.50;47.70;;;;;;1617541;71;732;-59
2022/09/22 10:52:44;;;;;;;;;;;24.50;47.60;;;;;;1621149;71;688;-59
2022/09/22 10:54:51;;;;;;;;;;;24.50;47.70;;;;;;1619433;71;1252;-60
2022/09/22 10:56:54;;;;;;;;;;;24.60;47.60;;;;;;1619778;71;2092;-58
2022/09/22 10:59:10;;;;;;;;;;;24.60;47.60;;;;;;1620240;71;808;-58
2022/09/22 11:01:28;;;;;;;;;;;24.60;47.40;;;;;;1625941;71;1778;-60
2022/09/22 11:03:48;;;;;;;;;;;24.70;47.30;;;;;;1615501;71;1848;-58
2022/09/22 11:13:22;;;;;;;;;;;24.90;47.10;;;;;;1612766;71;1611;-60
2022/09/22 11:15:38;;;;;;;;;;;24.90;47.10;;;;;;1624796;71;1149;-60
2022/09/22 11:17:52;;;;;;;;;;;24.80;46.90;;;;;;1610021;71;650;-61
2022/09/22 11:20:04;;;;;;;;;;;24.90;47.00;;;;;;1619487;71;1572;-60
2022/09/22 11:22:10;;;;;;;;;;;24.90;46.90;;;;;;1609102;71;665;-59
2022/09/22 11:24:30;;;;;;;;;;;24.90;46.90;;;;;;1607350;73;1113;-59
2022/09/22 11:26:37;;;;;;;;;;;24.90;46.90;;;;;;1620289;71;628;-60
2022/09/22 11:28:42;;;;;;;;;;;24.80;46.80;;;;;;1620720;71;1555;-60
2022/09/22 11:30:45;;;;;;;;;;;24.80;46.90;;;;;;1618803;71;1912;-61
2022/09/22 11:32:51;;;;;;;;;;;24.80;46.90;;;;;;1584617;70;223850;-70
2022/09/22 11:35:10;;;;;;;;;;;24.80;47.00;;;;;;1571032;74;1594;-69
2022/09/22 11:37:25;;;;;;;;;;;24.80;47.10;;;;;;1571393;74;643;-70
2022/09/22 11:39:44;;;;;;;;;;;24.80;47.10;;;;;;1576224;74;865;-70
2022/09/22 11:41:53;;;;;;;;;;;24.80;46.90;;;;;;1585557;73;1631;-70
2022/09/22 11:44:13;;;;;;;;;;;24.80;47.10;;;;;;1569078;74;1847;-70
2022/09/22 11:46:28;;;;;;;;;;;24.80;46.90;;;;;;1575294;74;744;-70
2022/09/22 11:48:48;;;;;;;;;;;24.80;47.00;;;;;;1577996;74;708;-70
2022/09/22 11:50:52;;;;;;;;;;;24.70;47.20;;;;;;1576252;74;1937;-69
2022/09/22 11:52:58;;;;;;;;;;;24.80;47.10;;;;;;1574633;74;1037;-70
2022/09/22 11:55:02;;;;;;;;;;;24.80;47.10;;;;;;1570545;74;733;-70
2022/09/22 11:57:05;;;;;;;;;;;24.70;47.00;;;;;;1575534;74;1541;-67
2022/09/22 11:59:12;;;;;;;;;;;24.80;46.40;;;;;;1573698;74;1969;-70
2022/09/22 12:01:15;;;;;;;;;;;24.70;46.20;;;;;;1589245;73;1967;-70
2022/09/22 12:03:19;;;;;;;;;;;24.60;46.30;;;;;;1588333;74;727;-69
2022/09/22 12:05:35;;;;;;;;;;;24.70;46.70;;;;;;1579907;74;822;-68
2022/09/22 12:07:43;;;;;;;;;;;24.60;46.60;;;;;;1578943;74;1046;-68
2022/09/22 12:09:43;;;;;;;;;;;24.60;46.60;;;;;;1574088;74;1609;-68
2022/09/22 12:11:45;;;;;;;;;;;24.60;47.10;;;;;;1573548;74;1937;-68
2022/09/22 12:13:52;;;;;;;;;;;24.60;46.80;;;;;;1579317;74;675;-69
2022/09/22 12:15:53;;;;;;;;;;;24.60;46.60;;;;;;1574396;74;1698;-67
2022/09/22 12:18:04;;;;;;;;;;;24.60;46.70;;;;;;1575579;74;2125;-68
2022/09/22 12:20:11;;;;;;;;;;;24.60;46.70;;;;;;1574015;74;1785;-68
2022/09/22 12:22:24;;;;;;;;;;;24.60;46.50;;;;;;1576446;74;1148;-67
2022/09/22 12:24:26;;;;;;;;;;;24.60;46.60;;;;;;1579901;74;1579;-68
2022/09/22 12:26:28;;;;;;;;;;;24.70;46.70;;;;;;1573998;74;689;-68
2022/09/22 12:28:31;;;;;;;;;;;24.60;46.60;;;;;;1588375;74;707;-67
2022/09/22 12:30:33;;;;;;;;;;;24.70;46.70;;;;;;1584980;74;638;-68
2022/09/22 12:32:35;;;;;;;;;;;24.60;46.50;;;;;;1588103;73;1949;-68
2022/09/22 12:34:41;;;;;;;;;;;24.70;46.70;;;;;;1584552;74;740;-68
2022/09/22 12:36:42;;;;;;;;;;;24.60;46.60;;;;;;1578728;74;884;-67